Wrightsville, Pennsylvania
Current Conditions -  °F | °C
As of 3:53 PM on Tuesday 27 Jan 2015 (Local Time) from KLNS Reporting Station
Broken Clouds Broken Clouds  
Wind Chill: 20°   Ceiling: 7500
Heat Index: 30°   Visibility: 10mi
Dew Point: 12°   Wind: 14mph
Humidity: 47%   Direction: 310°NW
Pressure: 29.75"   Gusts: NA
Location:  40.03°N, 76.53°W
Report Text: KLNS 272053Z 31012KT 10SM BKN075 M01/M11 A2975 RMK AO2 SLP077 T10111111 56009
Loading
Personal Weather Stations






























Interactive Weather Map New forecast layout! Learn more

10-Day Weather Forecast

Advertisements
Track Severe Weather on mobile